El Quimilar, Argentina
Current Conditions -  °F | °C
As of 4:00 PM on Wednesday 17 Dec 2014 (Local Time) from SASJ Reporting Station
Overcast Overcast  
Wind Chill: 24°   Ceiling: 10000
Heat Index: 24°   Visibility: 6mi
Dew Point: 17°   Wind: 7mph
Humidity: 65%   Direction: 320°NW
Pressure: 29.94"   Gusts: NA
Location:  23.33°S, 64.07°W
Report Text: SASJ 171900Z 32006KT 9999 FEW020 SCT025OVC100 24/17 Q1014
Loading
Personal Weather Stations






























Interactive Weather Map New forecast layout! Learn more

10-Day Weather Forecast

Advertisements
Track Severe Weather on mobile